sensor_id;sensor_type;location;lat;lon;timestamp;P1;durP1;ratioP1;P2;durP2;ratioP2
11767;SDS011;5941;57.652;12.514;2022-10-23T00:00:02;4.23;;;2.67;;
11767;SDS011;5941;57.652;12.514;2022-10-23T00:02:28;4.93;;;2.77;;
11767;SDS011;5941;57.652;12.514;2022-10-23T00:04:54;4.87;;;3.00;;
11767;SDS011;5941;57.652;12.514;2022-10-23T00:07:20;3.20;;;2.90;;
11767;SDS011;5941;57.652;12.514;2022-10-23T00:09:46;4.03;;;2.90;;
11767;SDS011;5941;57.652;12.514;2022-10-23T00:12:12;3.87;;;2.97;;
11767;SDS011;5941;57.652;12.514;2022-10-23T00:14:38;5.23;;;3.67;;
11767;SDS011;5941;57.652;12.514;2022-10-23T00:17:04;3.90;;;3.30;;
11767;SDS011;5941;57.652;12.514;2022-10-23T00:19:30;4.07;;;3.20;;
11767;SDS011;5941;57.652;12.514;2022-10-23T00:21:56;3.97;;;3.27;;
11767;SDS011;5941;57.652;12.514;2022-10-23T00:24:22;6.57;;;3.50;;
11767;SDS011;5941;57.652;12.514;2022-10-23T00:26:48;4.97;;;3.63;;
11767;SDS011;5941;57.652;12.514;2022-10-23T00:29:15;4.47;;;3.13;;
11767;SDS011;5941;57.652;12.514;2022-10-23T00:31:41;5.17;;;3.40;;
11767;SDS011;5941;57.652;12.514;2022-10-23T00:34:07;4.73;;;3.73;;
11767;SDS011;5941;57.652;12.514;2022-10-23T00:36:33;5.07;;;3.70;;
11767;SDS011;5941;57.652;12.514;2022-10-23T00:38:59;5.90;;;4.00;;
11767;SDS011;5941;57.652;12.514;2022-10-23T00:41:26;4.57;;;3.70;;
11767;SDS011;5941;57.652;12.514;2022-10-23T00:43:54;6.37;;;3.90;;
11767;SDS011;5941;57.652;12.514;2022-10-23T00:46:20;5.03;;;3.70;;
11767;SDS011;5941;57.652;12.514;2022-10-23T00:48:46;6.60;;;3.50;;
11767;SDS011;5941;57.652;12.514;2022-10-23T00:51:12;6.77;;;3.90;;
11767;SDS011;5941;57.652;12.514;2022-10-23T00:53:38;4.57;;;3.73;;
11767;SDS011;5941;57.652;12.514;2022-10-23T00:56:04;6.33;;;3.50;;
11767;SDS011;5941;57.652;12.514;2022-10-23T00:58:30;6.33;;;3.90;;
11767;SDS011;5941;57.652;12.514;2022-10-23T01:00:56;5.30;;;3.67;;
11767;SDS011;5941;57.652;12.514;2022-10-23T01:03:24;6.47;;;4.10;;
11767;SDS011;5941;57.652;12.514;2022-10-23T01:08:27;5.90;;;3.60;;
11767;SDS011;5941;57.652;12.514;2022-10-23T01:11:08;7.37;;;3.80;;
11767;SDS011;5941;57.652;12.514;2022-10-23T01:21:08;7.67;;;4.90;;
11767;SDS011;5941;57.652;12.514;2022-10-23T01:23:44;6.93;;;4.40;;
11767;SDS011;5941;57.652;12.514;2022-10-23T01:28:47;7.57;;;4.70;;
11767;SDS011;5941;57.652;12.514;2022-10-23T01:31:15;7.70;;;4.77;;
11767;SDS011;5941;57.652;12.514;2022-10-23T01:33:46;8.03;;;4.97;;
11767;SDS011;5941;57.652;12.514;2022-10-23T01:36:14;9.17;;;5.13;;
11767;SDS011;5941;57.652;12.514;2022-10-23T01:41:15;7.33;;;5.20;;
11767;SDS011;5941;57.652;12.514;2022-10-23T01:43:46;8.47;;;5.47;;
11767;SDS011;5941;57.652;12.514;2022-10-23T01:46:15;9.03;;;5.10;;
11767;SDS011;5941;57.652;12.514;2022-10-23T01:48:42;8.57;;;5.47;;
11767;SDS011;5941;57.652;12.514;2022-10-23T01:51:09;5.67;;;4.30;;
11767;SDS011;5941;57.652;12.514;2022-10-23T01:53:38;10.27;;;5.30;;
11767;SDS011;5941;57.652;12.514;2022-10-23T01:56:06;7.57;;;5.47;;
11767;SDS011;5941;57.652;12.514;2022-10-23T01:58:33;9.27;;;5.37;;
11767;SDS011;5941;57.652;12.514;2022-10-23T02:01:01;7.60;;;5.10;;
11767;SDS011;5941;57.652;12.514;2022-10-23T02:03:28;6.70;;;4.90;;
11767;SDS011;5941;57.652;12.514;2022-10-23T02:05:55;6.57;;;4.77;;
11767;SDS011;5941;57.652;12.514;2022-10-23T02:08:21;9.30;;;4.87;;
11767;SDS011;5941;57.652;12.514;2022-10-23T02:11:00;8.10;;;5.03;;
11767;SDS011;5941;57.652;12.514;2022-10-23T02:13:38;10.63;;;5.70;;
11767;SDS011;5941;57.652;12.514;2022-10-23T02:16:11;10.20;;;5.00;;
11767;SDS011;5941;57.652;12.514;2022-10-23T02:18:41;9.90;;;5.43;;
11767;SDS011;5941;57.652;12.514;2022-10-23T02:21:11;11.13;;;5.17;;
11767;SDS011;5941;57.652;12.514;2022-10-23T02:24:21;9.80;;;5.63;;
11767;SDS011;5941;57.652;12.514;2022-10-23T02:26:35;8.37;;;5.33;;
11767;SDS011;5941;57.652;12.514;2022-10-23T02:29:07;11.10;;;5.87;;
11767;SDS011;5941;57.652;12.514;2022-10-23T02:31:34;7.43;;;5.17;;
11767;SDS011;5941;57.652;12.514;2022-10-23T02:34:00;8.27;;;5.27;;
11767;SDS011;5941;57.652;12.514;2022-10-23T02:36:26;9.27;;;5.80;;
11767;SDS011;5941;57.652;12.514;2022-10-23T02:38:52;10.23;;;5.57;;
11767;SDS011;5941;57.652;12.514;2022-10-23T02:56:49;6.33;;;4.60;;
11767;SDS011;5941;57.652;12.514;2022-10-23T03:01:53;6.83;;;4.83;;
11767;SDS011;5941;57.652;12.514;2022-10-23T03:04:20;7.10;;;4.53;;
11767;SDS011;5941;57.652;12.514;2022-10-23T03:06:49;7.60;;;4.90;;
11767;SDS011;5941;57.652;12.514;2022-10-23T03:09:15;6.23;;;4.97;;
11767;SDS011;5941;57.652;12.514;2022-10-23T03:11:41;6.53;;;4.90;;
11767;SDS011;5941;57.652;12.514;2022-10-23T03:14:07;6.43;;;5.20;;
11767;SDS011;5941;57.652;12.514;2022-10-23T03:16:33;8.57;;;4.77;;
11767;SDS011;5941;57.652;12.514;2022-10-23T03:18:59;6.87;;;5.17;;
11767;SDS011;5941;57.652;12.514;2022-10-23T03:21:25;5.87;;;4.80;;
11767;SDS011;5941;57.652;12.514;2022-10-23T03:23:51;5.53;;;4.63;;
11767;SDS011;5941;57.652;12.514;2022-10-23T03:26:17;6.53;;;4.83;;
11767;SDS011;5941;57.652;12.514;2022-10-23T03:28:43;6.90;;;4.90;;
11767;SDS011;5941;57.652;12.514;2022-10-23T03:31:09;6.63;;;5.10;;
11767;SDS011;5941;57.652;12.514;2022-10-23T03:33:35;6.17;;;4.10;;
11767;SDS011;5941;57.652;12.514;2022-10-23T03:36:01;10.13;;;4.73;;
11767;SDS011;5941;57.652;12.514;2022-10-23T03:38:27;5.60;;;3.80;;
11767;SDS011;5941;57.652;12.514;2022-10-23T03:40:53;5.30;;;3.93;;
11767;SDS011;5941;57.652;12.514;2022-10-23T03:43:19;4.10;;;3.70;;
11767;SDS011;5941;57.652;12.514;2022-10-23T03:45:45;5.13;;;3.43;;
11767;SDS011;5941;57.652;12.514;2022-10-23T03:48:11;5.00;;;3.80;;
11767;SDS011;5941;57.652;12.514;2022-10-23T03:50:37;3.23;;;2.90;;
11767;SDS011;5941;57.652;12.514;2022-10-23T03:53:03;3.03;;;2.73;;
11767;SDS011;5941;57.652;12.514;2022-10-23T03:55:29;5.23;;;3.07;;
11767;SDS011;5941;57.652;12.514;2022-10-23T03:57:55;2.83;;;2.53;;
11767;SDS011;5941;57.652;12.514;2022-10-23T04:00:21;2.57;;;2.37;;
11767;SDS011;5941;57.652;12.514;2022-10-23T04:02:47;3.40;;;2.43;;
11767;SDS011;5941;57.652;12.514;2022-10-23T04:05:13;3.20;;;2.57;;
11767;SDS011;5941;57.652;12.514;2022-10-23T04:07:39;2.70;;;2.50;;
11767;SDS011;5941;57.652;12.514;2022-10-23T04:10:06;2.60;;;2.40;;
11767;SDS011;5941;57.652;12.514;2022-10-23T04:12:32;3.43;;;2.30;;
11767;SDS011;5941;57.652;12.514;2022-10-23T04:14:58;4.03;;;2.70;;
11767;SDS011;5941;57.652;12.514;2022-10-23T04:17:24;3.17;;;2.87;;
11767;SDS011;5941;57.652;12.514;2022-10-23T04:19:50;3.20;;;2.90;;
11767;SDS011;5941;57.652;12.514;2022-10-23T04:22:16;3.00;;;2.63;;
11767;SDS011;5941;57.652;12.514;2022-10-23T04:24:42;2.93;;;2.40;;
11767;SDS011;5941;57.652;12.514;2022-10-23T04:27:10;2.63;;;2.43;;
11767;SDS011;5941;57.652;12.514;2022-10-23T04:29:36;2.57;;;2.37;;
11767;SDS011;5941;57.652;12.514;2022-10-23T04:32:02;2.33;;;2.13;;
11767;SDS011;5941;57.652;12.514;2022-10-23T04:34:28;2.30;;;2.10;;
11767;SDS011;5941;57.652;12.514;2022-10-23T04:36:54;2.60;;;2.20;;
11767;SDS011;5941;57.652;12.514;2022-10-23T04:39:20;2.27;;;2.07;;
11767;SDS011;5941;57.652;12.514;2022-10-23T04:41:46;2.50;;;2.30;;
11767;SDS011;5941;57.652;12.514;2022-10-23T04:44:12;2.47;;;2.27;;
11767;SDS011;5941;57.652;12.514;2022-10-23T04:46:38;1.80;;;1.70;;
11767;SDS011;5941;57.652;12.514;2022-10-23T04:49:04;2.70;;;1.87;;
11767;SDS011;5941;57.652;12.514;2022-10-23T04:51:30;1.87;;;1.77;;
11767;SDS011;5941;57.652;12.514;2022-10-23T04:53:56;1.73;;;1.63;;
11767;SDS011;5941;57.652;12.514;2022-10-23T04:56:22;1.90;;;1.67;;
11767;SDS011;5941;57.652;12.514;2022-10-23T04:58:48;1.50;;;1.40;;
11767;SDS011;5941;57.652;12.514;2022-10-23T05:01:15;1.53;;;1.40;;
11767;SDS011;5941;57.652;12.514;2022-10-23T05:03:41;1.47;;;1.37;;
11767;SDS011;5941;57.652;12.514;2022-10-23T05:06:08;1.63;;;1.53;;
11767;SDS011;5941;57.652;12.514;2022-10-23T05:08:34;1.67;;;1.37;;
11767;SDS011;5941;57.652;12.514;2022-10-23T05:11:00;2.10;;;1.40;;
11767;SDS011;5941;57.652;12.514;2022-10-23T05:13:26;3.73;;;2.17;;
11767;SDS011;5941;57.652;12.514;2022-10-23T05:15:52;2.00;;;1.80;;
11767;SDS011;5941;57.652;12.514;2022-10-23T05:18:29;2.87;;;1.70;;
11767;SDS011;5941;57.652;12.514;2022-10-23T05:21:00;2.00;;;1.60;;
11767;SDS011;5941;57.652;12.514;2022-10-23T05:23:27;1.70;;;1.60;;
11767;SDS011;5941;57.652;12.514;2022-10-23T05:25:54;1.50;;;1.40;;
11767;SDS011;5941;57.652;12.514;2022-10-23T05:28:20;1.50;;;1.40;;
11767;SDS011;5941;57.652;12.514;2022-10-23T05:30:46;1.67;;;1.30;;
11767;SDS011;5941;57.652;12.514;2022-10-23T05:33:12;1.60;;;1.50;;
11767;SDS011;5941;57.652;12.514;2022-10-23T05:35:39;1.57;;;1.47;;
11767;SDS011;5941;57.652;12.514;2022-10-23T05:38:05;2.33;;;1.50;;
11767;SDS011;5941;57.652;12.514;2022-10-23T05:40:31;2.13;;;1.40;;
11767;SDS011;5941;57.652;12.514;2022-10-23T05:42:57;2.17;;;1.40;;
11767;SDS011;5941;57.652;12.514;2022-10-23T05:45:23;1.37;;;1.20;;
11767;SDS011;5941;57.652;12.514;2022-10-23T05:47:50;1.40;;;1.30;;
11767;SDS011;5941;57.652;12.514;2022-10-23T05:50:17;1.30;;;1.20;;
11767;SDS011;5941;57.652;12.514;2022-10-23T05:52:47;1.40;;;1.30;;
11767;SDS011;5941;57.652;12.514;2022-10-23T05:55:13;1.10;;;1.10;;
11767;SDS011;5941;57.652;12.514;2022-10-23T05:57:39;1.10;;;1.10;;
11767;SDS011;5941;57.652;12.514;2022-10-23T06:00:05;3.03;;;1.13;;
11767;SDS011;5941;57.652;12.514;2022-10-23T06:02:32;2.30;;;1.30;;
11767;SDS011;5941;57.652;12.514;2022-10-23T06:04:58;3.27;;;1.73;;
11767;SDS011;5941;57.652;12.514;2022-10-23T06:07:25;4.13;;;1.20;;
11767;SDS011;5941;57.652;12.514;2022-10-23T06:09:51;1.23;;;1.17;;
11767;SDS011;5941;57.652;12.514;2022-10-23T06:12:19;1.37;;;1.27;;
11767;SDS011;5941;57.652;12.514;2022-10-23T06:14:45;1.20;;;1.10;;
11767;SDS011;5941;57.652;12.514;2022-10-23T06:17:11;1.50;;;1.40;;
11767;SDS011;5941;57.652;12.514;2022-10-23T06:19:36;1.50;;;1.40;;
11767;SDS011;5941;57.652;12.514;2022-10-23T06:22:03;1.27;;;1.17;;
11767;SDS011;5941;57.652;12.514;2022-10-23T06:24:29;1.00;;;1.00;;
11767;SDS011;5941;57.652;12.514;2022-10-23T06:26:55;1.30;;;1.13;;
11767;SDS011;5941;57.652;12.514;2022-10-23T06:29:21;1.30;;;1.20;;
11767;SDS011;5941;57.652;12.514;2022-10-23T06:31:47;1.37;;;1.20;;
11767;SDS011;5941;57.652;12.514;2022-10-23T06:34:13;1.37;;;1.17;;
11767;SDS011;5941;57.652;12.514;2022-10-23T06:36:40;1.83;;;1.40;;
11767;SDS011;5941;57.652;12.514;2022-10-23T06:39:06;1.30;;;1.20;;
11767;SDS011;5941;57.652;12.514;2022-10-23T06:41:32;3.20;;;1.33;;
11767;SDS011;5941;57.652;12.514;2022-10-23T06:43:58;2.60;;;1.30;;
11767;SDS011;5941;57.652;12.514;2022-10-23T06:46:25;1.47;;;1.10;;
11767;SDS011;5941;57.652;12.514;2022-10-23T06:48:53;2.10;;;1.10;;
11767;SDS011;5941;57.652;12.514;2022-10-23T06:51:19;1.87;;;1.50;;
11767;SDS011;5941;57.652;12.514;2022-10-23T06:53:46;1.70;;;1.00;;
11767;SDS011;5941;57.652;12.514;2022-10-23T06:56:12;3.60;;;1.40;;
11767;SDS011;5941;57.652;12.514;2022-10-23T06:58:39;3.63;;;2.00;;
11767;SDS011;5941;57.652;12.514;2022-10-23T07:01:06;2.00;;;1.70;;
11767;SDS011;5941;57.652;12.514;2022-10-23T07:03:33;3.03;;;1.43;;
11767;SDS011;5941;57.652;12.514;2022-10-23T07:06:00;2.03;;;1.43;;
11767;SDS011;5941;57.652;12.514;2022-10-23T07:08:26;2.77;;;1.67;;
11767;SDS011;5941;57.652;12.514;2022-10-23T07:10:52;3.60;;;1.90;;
11767;SDS011;5941;57.652;12.514;2022-10-23T07:13:19;3.17;;;2.17;;
11767;SDS011;5941;57.652;12.514;2022-10-23T07:15:46;4.30;;;1.80;;
11767;SDS011;5941;57.652;12.514;2022-10-23T07:18:12;9.00;;;2.07;;
11767;SDS011;5941;57.652;12.514;2022-10-23T07:20:40;4.50;;;1.67;;
11767;SDS011;5941;57.652;12.514;2022-10-23T07:23:06;4.13;;;1.60;;
11767;SDS011;5941;57.652;12.514;2022-10-23T07:25:32;5.63;;;1.70;;
11767;SDS011;5941;57.652;12.514;2022-10-23T07:27:58;1.73;;;1.47;;
11767;SDS011;5941;57.652;12.514;2022-10-23T07:30:24;3.07;;;1.60;;
11767;SDS011;5941;57.652;12.514;2022-10-23T07:32:50;6.10;;;1.70;;
11767;SDS011;5941;57.652;12.514;2022-10-23T07:35:16;4.27;;;1.60;;
11767;SDS011;5941;57.652;12.514;2022-10-23T07:37:42;2.33;;;1.70;;
11767;SDS011;5941;57.652;12.514;2022-10-23T07:40:08;6.07;;;2.50;;
11767;SDS011;5941;57.652;12.514;2022-10-23T07:42:35;6.33;;;3.30;;
11767;SDS011;5941;57.652;12.514;2022-10-23T07:45:01;5.27;;;2.90;;
11767;SDS011;5941;57.652;12.514;2022-10-23T07:47:28;5.63;;;3.37;;
11767;SDS011;5941;57.652;12.514;2022-10-23T07:49:56;4.13;;;2.60;;
11767;SDS011;5941;57.652;12.514;2022-10-23T07:52:22;2.73;;;2.30;;
11767;SDS011;5941;57.652;12.514;2022-10-23T07:54:51;2.40;;;2.20;;
11767;SDS011;5941;57.652;12.514;2022-10-23T07:57:17;3.83;;;2.80;;
11767;SDS011;5941;57.652;12.514;2022-10-23T07:59:43;5.50;;;2.77;;
11767;SDS011;5941;57.652;12.514;2022-10-23T08:02:10;4.77;;;2.90;;
11767;SDS011;5941;57.652;12.514;2022-10-23T08:04:36;6.37;;;3.30;;
11767;SDS011;5941;57.652;12.514;2022-10-23T08:07:02;4.87;;;3.20;;
11767;SDS011;5941;57.652;12.514;2022-10-23T08:09:28;5.23;;;3.20;;
11767;SDS011;5941;57.652;12.514;2022-10-23T08:11:54;5.03;;;2.70;;
11767;SDS011;5941;57.652;12.514;2022-10-23T08:14:20;6.57;;;3.40;;
11767;SDS011;5941;57.652;12.514;2022-10-23T08:16:46;5.97;;;3.63;;
11767;SDS011;5941;57.652;12.514;2022-10-23T08:19:12;6.50;;;3.37;;
11767;SDS011;5941;57.652;12.514;2022-10-23T08:21:38;5.17;;;3.30;;
11767;SDS011;5941;57.652;12.514;2022-10-23T08:24:04;5.47;;;3.07;;
11767;SDS011;5941;57.652;12.514;2022-10-23T08:26:31;3.93;;;2.90;;
11767;SDS011;5941;57.652;12.514;2022-10-23T08:28:57;5.17;;;3.73;;
11767;SDS011;5941;57.652;12.514;2022-10-23T08:31:23;7.57;;;4.03;;
11767;SDS011;5941;57.652;12.514;2022-10-23T08:33:49;8.80;;;4.77;;
11767;SDS011;5941;57.652;12.514;2022-10-23T08:36:22;8.20;;;4.50;;
11767;SDS011;5941;57.652;12.514;2022-10-23T08:38:49;7.37;;;4.40;;
11767;SDS011;5941;57.652;12.514;2022-10-23T08:43:45;8.57;;;4.23;;
11767;SDS011;5941;57.652;12.514;2022-10-23T08:46:14;5.57;;;3.83;;
11767;SDS011;5941;57.652;12.514;2022-10-23T08:48:46;7.07;;;3.70;;
11767;SDS011;5941;57.652;12.514;2022-10-23T08:51:18;8.17;;;3.47;;
11767;SDS011;5941;57.652;12.514;2022-10-23T08:56:19;4.27;;;3.03;;
11767;SDS011;5941;57.652;12.514;2022-10-23T08:58:46;4.17;;;2.90;;
11767;SDS011;5941;57.652;12.514;2022-10-23T09:03:48;3.40;;;2.17;;
11767;SDS011;5941;57.652;12.514;2022-10-23T09:06:16;3.17;;;2.13;;
11767;SDS011;5941;57.652;12.514;2022-10-23T09:08:58;2.97;;;1.70;;
11767;SDS011;5941;57.652;12.514;2022-10-23T09:11:30;4.13;;;2.13;;
11767;SDS011;5941;57.652;12.514;2022-10-23T09:19:10;2.70;;;1.87;;
11767;SDS011;5941;57.652;12.514;2022-10-23T09:21:37;2.47;;;1.60;;
11767;SDS011;5941;57.652;12.514;2022-10-23T09:24:03;2.67;;;1.63;;
11767;SDS011;5941;57.652;12.514;2022-10-23T09:26:29;2.10;;;1.60;;
11767;SDS011;5941;57.652;12.514;2022-10-23T09:29:18;3.43;;;1.60;;
11767;SDS011;5941;57.652;12.514;2022-10-23T09:31:54;1.50;;;1.40;;
11767;SDS011;5941;57.652;12.514;2022-10-23T09:34:21;2.30;;;1.57;;
11767;SDS011;5941;57.652;12.514;2022-10-23T09:36:52;2.93;;;1.50;;
11767;SDS011;5941;57.652;12.514;2022-10-23T09:39:24;2.70;;;1.80;;
11767;SDS011;5941;57.652;12.514;2022-10-23T09:41:51;2.77;;;1.40;;
11767;SDS011;5941;57.652;12.514;2022-10-23T09:44:18;2.10;;;1.60;;
11767;SDS011;5941;57.652;12.514;2022-10-23T09:46:45;3.67;;;2.03;;
11767;SDS011;5941;57.652;12.514;2022-10-23T09:49:19;4.73;;;1.93;;
11767;SDS011;5941;57.652;12.514;2022-10-23T09:59:38;2.43;;;1.80;;
11767;SDS011;5941;57.652;12.514;2022-10-23T10:02:16;4.23;;;1.90;;
11767;SDS011;5941;57.652;12.514;2022-10-23T10:04:44;4.57;;;2.20;;
11767;SDS011;5941;57.652;12.514;2022-10-23T10:07:18;4.10;;;2.00;;
11767;SDS011;5941;57.652;12.514;2022-10-23T10:09:44;4.03;;;1.90;;
11767;SDS011;5941;57.652;12.514;2022-10-23T10:14:53;5.03;;;2.13;;
11767;SDS011;5941;57.652;12.514;2022-10-23T10:22:28;4.87;;;2.40;;
11767;SDS011;5941;57.652;12.514;2022-10-23T10:24:57;8.17;;;2.20;;
11767;SDS011;5941;57.652;12.514;2022-10-23T10:27:59;3.93;;;2.10;;
11767;SDS011;5941;57.652;12.514;2022-10-23T10:30:21;6.17;;;2.07;;
11767;SDS011;5941;57.652;12.514;2022-10-23T10:32:53;5.07;;;1.97;;
11767;SDS011;5941;57.652;12.514;2022-10-23T10:38:01;7.00;;;2.20;;
11767;SDS011;5941;57.652;12.514;2022-10-23T10:40:37;6.23;;;2.30;;
11767;SDS011;5941;57.652;12.514;2022-10-23T10:45:56;6.83;;;2.40;;
11767;SDS011;5941;57.652;12.514;2022-10-23T10:51:01;9.13;;;2.50;;
11767;SDS011;5941;57.652;12.514;2022-10-23T10:56:01;7.83;;;2.50;;
11767;SDS011;5941;57.652;12.514;2022-10-23T10:58:34;5.23;;;2.40;;
11767;SDS011;5941;57.652;12.514;2022-10-23T11:01:07;7.40;;;2.73;;
11767;SDS011;5941;57.652;12.514;2022-10-23T11:03:44;8.53;;;2.50;;
11767;SDS011;5941;57.652;12.514;2022-10-23T11:06:17;6.07;;;2.53;;
11767;SDS011;5941;57.652;12.514;2022-10-23T11:08:45;4.43;;;2.50;;
11767;SDS011;5941;57.652;12.514;2022-10-23T11:11:20;7.37;;;2.67;;
11767;SDS011;5941;57.652;12.514;2022-10-23T11:13:49;5.83;;;2.53;;
11767;SDS011;5941;57.652;12.514;2022-10-23T11:16:21;7.60;;;2.57;;
11767;SDS011;5941;57.652;12.514;2022-10-23T11:19:02;6.60;;;2.73;;
11767;SDS011;5941;57.652;12.514;2022-10-23T11:21:34;6.60;;;2.50;;
11767;SDS011;5941;57.652;12.514;2022-10-23T11:26:50;7.47;;;3.10;;
11767;SDS011;5941;57.652;12.514;2022-10-23T11:36:52;8.00;;;2.87;;
11767;SDS011;5941;57.652;12.514;2022-10-23T11:39:29;8.37;;;2.80;;
11767;SDS011;5941;57.652;12.514;2022-10-23T11:44:48;6.83;;;2.77;;
11767;SDS011;5941;57.652;12.514;2022-10-23T11:55:03;8.17;;;2.70;;
11767;SDS011;5941;57.652;12.514;2022-10-23T11:57:29;7.90;;;2.70;;
11767;SDS011;5941;57.652;12.514;2022-10-23T11:59:55;9.93;;;2.63;;
11767;SDS011;5941;57.652;12.514;2022-10-23T12:04:56;9.30;;;2.70;;
11767;SDS011;5941;57.652;12.514;2022-10-23T12:07:26;9.90;;;3.20;;
11767;SDS011;5941;57.652;12.514;2022-10-23T12:12:35;9.57;;;2.93;;
11767;SDS011;5941;57.652;12.514;2022-10-23T12:17:40;7.80;;;3.07;;
11767;SDS011;5941;57.652;12.514;2022-10-23T12:25:14;7.10;;;2.70;;
11767;SDS011;5941;57.652;12.514;2022-10-23T12:27:45;7.83;;;3.20;;
11767;SDS011;5941;57.652;12.514;2022-10-23T12:40:09;7.90;;;3.07;;
11767;SDS011;5941;57.652;12.514;2022-10-23T12:42:35;8.33;;;2.23;;
11767;SDS011;5941;57.652;12.514;2022-10-23T12:45:07;8.63;;;2.57;;
11767;SDS011;5941;57.652;12.514;2022-10-23T12:47:38;6.93;;;2.70;;
11767;SDS011;5941;57.652;12.514;2022-10-23T12:50:14;8.23;;;2.67;;
11767;SDS011;5941;57.652;12.514;2022-10-23T12:52:49;6.37;;;2.50;;
11767;SDS011;5941;57.652;12.514;2022-10-23T12:55:15;3.67;;;2.30;;
11767;SDS011;5941;57.652;12.514;2022-10-23T12:57:41;7.60;;;2.57;;
11767;SDS011;5941;57.652;12.514;2022-10-23T13:00:08;5.60;;;2.40;;
11767;SDS011;5941;57.652;12.514;2022-10-23T13:02:34;6.03;;;2.53;;
11767;SDS011;5941;57.652;12.514;2022-10-23T13:05:02;7.63;;;2.33;;
11767;SDS011;5941;57.652;12.514;2022-10-23T13:07:34;6.87;;;2.67;;
11767;SDS011;5941;57.652;12.514;2022-10-23T13:10:02;8.63;;;2.80;;
11767;SDS011;5941;57.652;12.514;2022-10-23T13:12:30;6.50;;;2.37;;
11767;SDS011;5941;57.652;12.514;2022-10-23T13:17:42;5.53;;;2.63;;
11767;SDS011;5941;57.652;12.514;2022-10-23T13:22:40;5.47;;;2.60;;
11767;SDS011;5941;57.652;12.514;2022-10-23T13:27:48;5.43;;;2.53;;
11767;SDS011;5941;57.652;12.514;2022-10-23T13:30:30;8.37;;;3.10;;
11767;SDS011;5941;57.652;12.514;2022-10-23T13:32:57;9.60;;;2.93;;
11767;SDS011;5941;57.652;12.514;2022-10-23T13:35:23;9.20;;;2.80;;
11767;SDS011;5941;57.652;12.514;2022-10-23T13:37:49;6.53;;;2.67;;
11767;SDS011;5941;57.652;12.514;2022-10-23T13:40:23;9.30;;;2.90;;
11767;SDS011;5941;57.652;12.514;2022-10-23T13:42:50;7.13;;;2.70;;
11767;SDS011;5941;57.652;12.514;2022-10-23T13:45:20;7.50;;;2.60;;
11767;SDS011;5941;57.652;12.514;2022-10-23T13:47:46;4.60;;;2.73;;
11767;SDS011;5941;57.652;12.514;2022-10-23T13:50:13;4.57;;;2.27;;
11767;SDS011;5941;57.652;12.514;2022-10-23T13:52:39;8.30;;;2.60;;
11767;SDS011;5941;57.652;12.514;2022-10-23T13:55:16;6.77;;;2.67;;
11767;SDS011;5941;57.652;12.514;2022-10-23T13:57:43;6.23;;;2.60;;
11767;SDS011;5941;57.652;12.514;2022-10-23T14:00:09;6.90;;;2.00;;
11767;SDS011;5941;57.652;12.514;2022-10-23T14:02:35;3.93;;;2.30;;
11767;SDS011;5941;57.652;12.514;2022-10-23T14:05:01;5.93;;;2.20;;
11767;SDS011;5941;57.652;12.514;2022-10-23T14:07:27;7.90;;;2.60;;
11767;SDS011;5941;57.652;12.514;2022-10-23T14:09:53;6.30;;;3.07;;
11767;SDS011;5941;57.652;12.514;2022-10-23T14:12:19;8.17;;;3.20;;
11767;SDS011;5941;57.652;12.514;2022-10-23T14:14:49;9.23;;;3.40;;
11767;SDS011;5941;57.652;12.514;2022-10-23T14:17:15;7.17;;;3.43;;
11767;SDS011;5941;57.652;12.514;2022-10-23T14:19:41;9.03;;;3.23;;
11767;SDS011;5941;57.652;12.514;2022-10-23T14:22:07;8.13;;;3.30;;
11767;SDS011;5941;57.652;12.514;2022-10-23T14:24:34;7.07;;;3.27;;
11767;SDS011;5941;57.652;12.514;2022-10-23T14:27:00;6.60;;;3.47;;
11767;SDS011;5941;57.652;12.514;2022-10-23T14:29:26;10.30;;;3.57;;
11767;SDS011;5941;57.652;12.514;2022-10-23T14:31:52;12.93;;;4.40;;
11767;SDS011;5941;57.652;12.514;2022-10-23T14:34:18;9.17;;;3.90;;
11767;SDS011;5941;57.652;12.514;2022-10-23T14:36:44;9.13;;;4.17;;
11767;SDS011;5941;57.652;12.514;2022-10-23T14:39:10;11.77;;;4.37;;
11767;SDS011;5941;57.652;12.514;2022-10-23T14:41:36;7.57;;;3.80;;
11767;SDS011;5941;57.652;12.514;2022-10-23T14:44:04;11.07;;;3.67;;
11767;SDS011;5941;57.652;12.514;2022-10-23T14:46:30;11.77;;;4.27;;
11767;SDS011;5941;57.652;12.514;2022-10-23T14:48:56;9.17;;;3.80;;
11767;SDS011;5941;57.652;12.514;2022-10-23T14:51:23;9.30;;;3.50;;
11767;SDS011;5941;57.652;12.514;2022-10-23T14:53:57;7.60;;;3.53;;
11767;SDS011;5941;57.652;12.514;2022-10-23T14:56:25;9.83;;;3.90;;
11767;SDS011;5941;57.652;12.514;2022-10-23T14:58:51;7.57;;;3.80;;
11767;SDS011;5941;57.652;12.514;2022-10-23T15:01:17;10.17;;;4.30;;
11767;SDS011;5941;57.652;12.514;2022-10-23T15:03:43;7.90;;;3.63;;
11767;SDS011;5941;57.652;12.514;2022-10-23T15:06:10;8.80;;;3.97;;
11767;SDS011;5941;57.652;12.514;2022-10-23T15:08:36;8.83;;;4.23;;
11767;SDS011;5941;57.652;12.514;2022-10-23T15:11:03;10.73;;;4.13;;
11767;SDS011;5941;57.652;12.514;2022-10-23T15:13:29;9.20;;;4.07;;
11767;SDS011;5941;57.652;12.514;2022-10-23T15:16:02;7.67;;;4.00;;
11767;SDS011;5941;57.652;12.514;2022-10-23T15:18:29;10.03;;;3.97;;
11767;SDS011;5941;57.652;12.514;2022-10-23T15:20:55;9.10;;;4.50;;
11767;SDS011;5941;57.652;12.514;2022-10-23T15:23:21;11.57;;;4.23;;
11767;SDS011;5941;57.652;12.514;2022-10-23T15:25:57;12.20;;;5.00;;
11767;SDS011;5941;57.652;12.514;2022-10-23T15:28:24;14.53;;;5.30;;
11767;SDS011;5941;57.652;12.514;2022-10-23T15:30:50;11.47;;;4.70;;
11767;SDS011;5941;57.652;12.514;2022-10-23T15:33:16;12.43;;;5.20;;
11767;SDS011;5941;57.652;12.514;2022-10-23T15:35:43;13.87;;;5.33;;
11767;SDS011;5941;57.652;12.514;2022-10-23T15:38:09;12.67;;;5.43;;
11767;SDS011;5941;57.652;12.514;2022-10-23T15:40:35;13.83;;;5.20;;
11767;SDS011;5941;57.652;12.514;2022-10-23T15:43:01;10.83;;;5.47;;
11767;SDS011;5941;57.652;12.514;2022-10-23T15:45:28;11.60;;;5.17;;
11767;SDS011;5941;57.652;12.514;2022-10-23T15:47:55;12.40;;;5.03;;
11767;SDS011;5941;57.652;12.514;2022-10-23T15:50:21;12.40;;;5.17;;
11767;SDS011;5941;57.652;12.514;2022-10-23T15:52:47;9.67;;;5.13;;
11767;SDS011;5941;57.652;12.514;2022-10-23T15:55:13;16.43;;;5.13;;
11767;SDS011;5941;57.652;12.514;2022-10-23T15:57:39;11.17;;;4.60;;
11767;SDS011;5941;57.652;12.514;2022-10-23T16:00:07;12.17;;;5.20;;
11767;SDS011;5941;57.652;12.514;2022-10-23T16:02:33;15.23;;;4.60;;
11767;SDS011;5941;57.652;12.514;2022-10-23T16:04:59;9.33;;;4.70;;
11767;SDS011;5941;57.652;12.514;2022-10-23T16:07:25;11.50;;;4.97;;
11767;SDS011;5941;57.652;12.514;2022-10-23T16:09:51;12.30;;;5.50;;
11767;SDS011;5941;57.652;12.514;2022-10-23T16:12:17;12.23;;;5.30;;
11767;SDS011;5941;57.652;12.514;2022-10-23T16:14:43;11.67;;;4.80;;
11767;SDS011;5941;57.652;12.514;2022-10-23T16:17:09;13.60;;;5.90;;
11767;SDS011;5941;57.652;12.514;2022-10-23T16:19:37;10.87;;;4.97;;
11767;SDS011;5941;57.652;12.514;2022-10-23T16:22:03;11.70;;;4.97;;
11767;SDS011;5941;57.652;12.514;2022-10-23T16:24:29;12.63;;;5.17;;
11767;SDS011;5941;57.652;12.514;2022-10-23T16:26:55;13.97;;;6.37;;
11767;SDS011;5941;57.652;12.514;2022-10-23T16:29:22;15.07;;;7.77;;
11767;SDS011;5941;57.652;12.514;2022-10-23T16:31:49;15.50;;;6.20;;
11767;SDS011;5941;57.652;12.514;2022-10-23T16:34:15;13.87;;;5.87;;
11767;SDS011;5941;57.652;12.514;2022-10-23T16:36:41;14.93;;;6.13;;
11767;SDS011;5941;57.652;12.514;2022-10-23T16:39:09;15.77;;;6.17;;
11767;SDS011;5941;57.652;12.514;2022-10-23T16:41:35;11.37;;;5.60;;
11767;SDS011;5941;57.652;12.514;2022-10-23T16:44:01;16.97;;;5.77;;
11767;SDS011;5941;57.652;12.514;2022-10-23T16:46:27;15.53;;;7.60;;
11767;SDS011;5941;57.652;12.514;2022-10-23T16:48:53;13.73;;;5.73;;
11767;SDS011;5941;57.652;12.514;2022-10-23T16:51:20;16.20;;;5.07;;